createdAt,value
2023-01-26T08:35:28.873Z,0.9
2023-01-26T08:40:29.020Z,0.9
2023-01-26T08:45:30.924Z,0.4
2023-01-26T08:50:29.111Z,0.4
2023-01-26T08:55:29.291Z,0.4
2023-01-26T09:00:28.804Z,0.4
2023-01-26T09:05:34.059Z,0.4
2023-01-26T09:10:29.023Z,0.4
2023-01-26T09:15:28.860Z,0.4
2023-01-26T09:20:29.522Z,0.4
2023-01-26T09:25:28.778Z,0.7
2023-01-26T09:30:29.701Z,0.7
2023-01-26T09:35:28.914Z,0.4
2023-01-26T09:40:29.550Z,0.4
2023-01-26T09:45:29.627Z,0.9
2023-01-26T09:50:28.777Z,0.9
2023-01-26T09:55:28.905Z,0.4
2023-01-26T10:00:29.287Z,0.4
2023-01-26T10:05:29.595Z,0.4
2023-01-26T10:10:28.931Z,0.4
2023-01-26T10:15:29.729Z,0.4
2023-01-26T10:20:28.773Z,0.4
2023-01-26T10:25:28.880Z,0.4
2023-01-26T10:30:29.429Z,0.4
2023-01-26T10:35:29.602Z,0.4
2023-01-26T10:40:29.621Z,0.4
2023-01-26T10:45:29.124Z,0.4
2023-01-26T10:50:29.681Z,0.4
2023-01-26T10:55:28.763Z,0.7
2023-01-26T11:00:28.850Z,0.7
2023-01-26T11:05:28.834Z,0.4
2023-01-26T11:10:29.123Z,0.4
2023-01-26T11:15:29.499Z,0.6
2023-01-26T11:20:29.551Z,0.6
2023-01-26T11:25:29.560Z,0.4
2023-01-26T11:30:28.683Z,0.4
2023-01-26T11:35:29.247Z,0
2023-01-26T11:40:29.508Z,0
2023-01-26T11:45:29.697Z,0.9
2023-01-26T11:50:28.807Z,0.9
2023-01-26T11:55:28.858Z,0.4
2023-01-26T12:00:31.217Z,0.4
2023-01-26T12:05:29.326Z,0.4
2023-01-26T12:10:29.251Z,0.4
2023-01-26T12:15:29.202Z,0.4
2023-01-26T12:20:29.113Z,0.4
2023-01-26T12:25:29.669Z,0.9
2023-01-26T12:30:29.286Z,0.9
2023-01-26T12:35:29.643Z,0.9
2023-01-26T12:40:28.902Z,0.9
2023-01-26T12:45:29.222Z,0.4
2023-01-26T12:50:29.311Z,0.4
2023-01-26T12:55:28.970Z,0.5
2023-01-26T13:00:29.556Z,0.5
2023-01-26T13:05:29.647Z,1
2023-01-26T13:10:30.078Z,1
2023-01-26T13:15:29.027Z,1.3
2023-01-26T13:20:29.382Z,1.3
2023-01-26T13:25:29.481Z,1.3
2023-01-26T13:30:29.151Z,1.3
2023-01-26T13:35:29.531Z,1.2
2023-01-26T13:40:31.587Z,1.2
2023-01-26T13:45:29.681Z,1.3
2023-01-26T13:50:28.731Z,1.3
2023-01-26T13:55:28.803Z,1.6
2023-01-26T14:00:28.897Z,1.6
2023-01-26T14:05:28.905Z,1.3
2023-01-26T14:10:29.000Z,1.3
2023-01-26T14:15:29.270Z,1.2
2023-01-26T14:20:29.326Z,1.2
2023-01-26T14:25:29.835Z,1
2023-01-26T14:30:29.570Z,1
2023-01-26T14:35:29.896Z,1
2023-01-26T14:40:29.158Z,1
2023-01-26T14:45:29.331Z,0.9
2023-01-26T14:50:29.537Z,0.9
2023-01-26T14:55:29.550Z,0.4
2023-01-26T15:00:29.838Z,0.4
2023-01-26T15:05:29.381Z,0.4
2023-01-26T15:10:29.701Z,0.4
2023-01-26T15:15:29.475Z,0.4
2023-01-26T15:20:29.441Z,0.4
2023-01-26T15:25:29.822Z,0.4
2023-01-26T15:30:31.255Z,0.4
2023-01-26T15:35:28.980Z,0.6
2023-01-26T15:40:29.187Z,0.6
2023-01-26T15:45:32.311Z,0.5
2023-01-26T15:50:30.428Z,0.5
2023-01-26T15:55:29.347Z,1.3
2023-01-26T16:00:29.924Z,1.3
2023-01-26T16:05:29.600Z,0.4
2023-01-26T16:10:29.617Z,0.4
2023-01-26T16:15:29.179Z,0.3
2023-01-26T16:20:29.610Z,0.3
2023-01-26T16:25:29.168Z,0.4
2023-01-26T16:30:29.645Z,0.4
2023-01-26T16:35:28.886Z,0.4
2023-01-26T16:40:29.963Z,0.4
2023-01-26T16:45:29.766Z,0.6
2023-01-26T16:50:31.840Z,0.6
2023-01-26T16:55:29.827Z,0.4
2023-01-26T17:00:29.727Z,0.4
2023-01-26T17:05:31.525Z,0.9
2023-01-26T17:10:29.945Z,0.9
2023-01-26T17:15:29.139Z,1.2
2023-01-26T17:20:29.702Z,1.2
2023-01-26T17:25:29.854Z,0.9
2023-01-26T17:30:31.061Z,0.9
2023-01-26T17:35:29.224Z,1
2023-01-26T17:40:29.271Z,1
2023-01-26T17:45:29.570Z,0.9
2023-01-26T17:50:29.604Z,0.9
2023-01-26T17:55:29.822Z,1
2023-01-26T18:00:29.027Z,1
2023-01-26T18:05:29.064Z,0.9
2023-01-26T18:10:29.196Z,0.9
2023-01-26T18:15:29.954Z,0.9
2023-01-26T18:20:28.942Z,0.9
2023-01-26T18:25:29.291Z,0.4
2023-01-26T18:30:29.524Z,0.4
2023-01-26T18:35:29.794Z,0.4
2023-01-26T18:40:30.034Z,0.4
2023-01-26T18:45:29.168Z,0.4
2023-01-26T18:50:29.333Z,0.4
2023-01-26T18:55:29.464Z,0.4
2023-01-26T19:00:30.087Z,0.4
2023-01-26T19:05:29.217Z,0.4
2023-01-26T19:10:29.702Z,0.4
2023-01-26T19:15:29.236Z,0.4
2023-01-26T19:20:29.915Z,0.4
2023-01-26T19:25:29.996Z,0.9
2023-01-26T19:30:29.023Z,0.9
2023-01-26T19:35:29.129Z,0.9
2023-01-26T19:40:29.267Z,0.9
2023-01-26T19:45:29.526Z,0.9
2023-01-26T19:50:29.686Z,0.9
2023-01-26T19:55:29.767Z,0.9
2023-01-26T20:00:30.098Z,0.9
2023-01-26T20:05:29.128Z,2.1
2023-01-26T20:10:29.191Z,2.1
2023-01-26T20:15:29.266Z,1.5
2023-01-26T20:20:29.215Z,1.5
2023-01-26T20:25:29.316Z,0.9
2023-01-26T20:30:29.830Z,0.9
2023-01-26T20:35:29.887Z,0.4
2023-01-26T20:40:30.015Z,0.4
2023-01-26T20:45:30.098Z,0.9
2023-01-26T20:50:29.203Z,0.9
2023-01-26T20:55:29.397Z,0.8
2023-01-26T21:00:29.487Z,0.8
2023-01-26T21:05:29.534Z,0.9
2023-01-26T21:10:29.802Z,0.9
2023-01-26T21:15:29.198Z,0.6
2023-01-26T21:20:29.935Z,0.6
2023-01-26T21:25:30.031Z,0.5
2023-01-26T21:30:29.400Z,0.5
2023-01-26T21:35:29.643Z,0.9
2023-01-26T21:40:29.622Z,0.9
2023-01-26T21:45:29.940Z,0.4
2023-01-26T21:50:30.039Z,0.4
2023-01-26T21:55:29.425Z,0.4
2023-01-26T22:00:33.363Z,0.4
2023-01-26T22:05:29.189Z,0.5
2023-01-26T22:10:29.255Z,0.5
2023-01-26T22:20:29.965Z,0.9
2023-01-26T22:25:30.089Z,1.3
2023-01-26T22:30:30.101Z,1.3
2023-01-26T22:35:29.369Z,0.9
2023-01-26T22:40:29.482Z,0.9
2023-01-26T22:45:29.471Z,1
2023-01-26T22:50:29.663Z,1
2023-01-26T22:55:29.629Z,1.3
2023-01-26T23:00:29.878Z,1.3
2023-01-26T23:05:29.969Z,0.9
2023-01-26T23:10:29.459Z,0.9
2023-01-26T23:15:29.495Z,0.9
2023-01-26T23:20:29.552Z,0.9
2023-01-26T23:25:29.720Z,1.3
2023-01-26T23:30:29.973Z,1.3
2023-01-26T23:35:29.983Z,0.9
2023-01-26T23:40:30.027Z,0.9
2023-01-26T23:45:30.025Z,1.1
2023-01-26T23:50:30.008Z,1.1
2023-01-26T23:55:30.188Z,0.9
